Time;durP1;ratioP1;P1;durP2;ratioP2;P2;SDS_P1;SDS_P2;PMS_P1;PMS_P2;Temp;Humidity;BMP_temperature;BMP_pressure;BME280_temperature;BME280_humidity;BME280_pressure;Samples;Min_cycle;Max_cycle;Signal;HPM_P1;HPM_P2
2022/08/07 00:01:27;;;;;;;1.10;0.90;;;26.90;94.40;;;;;;5051227;28;20395;-73
2022/08/07 00:03:53;;;;;;;0.90;0.90;;;26.80;94.00;;;;;;5042848;28;20025;-72
2022/08/07 00:06:19;;;;;;;1.30;1.20;;;26.90;93.90;;;;;;5034802;28;20488;-72
2022/08/07 00:08:45;;;;;;;1.60;1.20;;;26.90;94.10;;;;;;5045284;28;20025;-72
2022/08/07 00:11:10;;;;;;;0.88;0.88;;;26.90;94.10;;;;;;5033723;28;20119;-72
2022/08/07 00:13:36;;;;;;;0.98;0.98;;;26.90;93.80;;;;;;5042454;28;20025;-72
2022/08/07 00:16:04;;;;;;;1.23;1.13;;;26.90;94.00;;;;;;5032092;28;20095;-72
2022/08/07 00:18:30;;;;;;;1.23;1.10;;;26.90;94.00;;;;;;5043217;28;20040;-72
2022/08/07 00:21:01;;;;;;;1.70;0.90;;;26.80;93.90;;;;;;5032796;28;20480;-72
2022/08/07 00:23:26;;;;;;;1.65;1.10;;;26.90;94.00;;;;;;5042742;28;20391;-72
2022/08/07 00:25:52;;;;;;;1.30;1.20;;;26.90;94.00;;;;;;5033137;28;20105;-72
2022/08/07 00:28:19;;;;;;;1.33;1.17;;;26.90;94.00;;;;;;5041544;28;20031;-73
2022/08/07 00:30:46;;;;;;;1.20;1.10;;;26.90;93.90;;;;;;5051909;28;20033;-73
2022/08/07 00:33:11;;;;;;;1.13;1.13;;;26.90;93.90;;;;;;5035150;28;20551;-73
2022/08/07 00:35:37;;;;;;;1.40;1.10;;;26.90;93.80;;;;;;5051226;28;20089;-72
2022/08/07 00:38:03;;;;;;;1.20;1.20;;;26.90;93.70;;;;;;5046016;28;20132;-72
2022/08/07 00:40:30;;;;;;;3.15;1.20;;;26.90;93.60;;;;;;5050979;28;20044;-72
2022/08/07 00:42:55;;;;;;;1.63;1.10;;;26.90;93.60;;;;;;5044360;28;20021;-72
2022/08/07 00:45:22;;;;;;;1.50;1.13;;;26.90;93.50;;;;;;5032062;28;20107;-76
2022/08/07 00:47:49;;;;;;;1.52;1.02;;;26.90;93.50;;;;;;5036714;28;20106;-73
2022/08/07 00:50:16;;;;;;;3.42;1.05;;;26.80;93.50;;;;;;5051988;28;20021;-73
2022/08/07 00:52:42;;;;;;;1.88;1.30;;;26.90;93.40;;;;;;5041330;28;20114;-73
2022/08/07 00:55:08;;;;;;;1.05;1.05;;;26.80;93.40;;;;;;5050844;28;20024;-73
2022/08/07 00:57:34;;;;;;;2.00;1.48;;;26.80;93.50;;;;;;5042152;28;20442;-73
2022/08/07 01:00:00;;;;;;;2.05;1.20;;;26.80;93.50;;;;;;5034426;28;20014;-73
2022/08/07 01:02:26;;;;;;;6.45;1.25;;;26.80;93.50;;;;;;5041366;28;20029;-72
2022/08/07 01:04:52;;;;;;;1.45;1.10;;;26.80;93.40;;;;;;5035528;28;20036;-73
2022/08/07 01:07:20;;;;;;;1.55;1.45;;;26.80;93.50;;;;;;5037275;28;20106;-74
2022/08/07 01:09:46;;;;;;;0.93;0.90;;;26.80;93.50;;;;;;5046257;28;20387;-73
2022/08/07 01:12:14;;;;;;;3.00;1.40;;;26.70;93.50;;;;;;5045236;28;20040;-73
2022/08/07 01:14:40;;;;;;;1.40;1.30;;;26.80;93.30;;;;;;5036977;28;20060;-73
2022/08/07 01:17:07;;;;;;;3.25;1.40;;;26.80;93.70;;;;;;5037137;28;20558;-73
2022/08/07 01:19:33;;;;;;;1.92;1.10;;;26.80;93.40;;;;;;5044615;28;20032;-72
2022/08/07 01:22:00;;;;;;;1.30;1.20;;;26.80;93.50;;;;;;5046644;28;20391;-74
2022/08/07 01:24:28;;;;;;;2.95;1.17;;;26.80;93.60;;;;;;5044655;28;20025;-73
2022/08/07 01:26:54;;;;;;;1.30;1.20;;;26.70;93.70;;;;;;5042196;28;20049;-72
2022/08/07 01:29:23;;;;;;;1.30;1.20;;;26.70;93.70;;;;;;5039432;28;20110;-73
2022/08/07 01:31:50;;;;;;;6.22;1.27;;;26.70;93.80;;;;;;5034285;28;20033;-73
2022/08/07 01:34:16;;;;;;;6.07;1.50;;;26.60;93.70;;;;;;5039993;28;20036;-72
2022/08/07 01:36:42;;;;;;;1.40;1.20;;;26.60;93.80;;;;;;5036229;28;20041;-72
2022/08/07 01:39:08;;;;;;;1.30;1.20;;;26.60;93.70;;;;;;5042420;28;20071;-73
2022/08/07 01:41:34;;;;;;;1.88;1.45;;;26.60;93.60;;;;;;5047526;28;20037;-72
2022/08/07 01:44:01;;;;;;;2.38;1.60;;;26.50;93.60;;;;;;5042689;28;20104;-73
2022/08/07 01:46:26;;;;;;;11.68;1.40;;;26.50;93.40;;;;;;5047695;28;20044;-72
2022/08/07 01:48:52;;;;;;;3.63;1.30;;;26.60;93.60;;;;;;5042470;28;20017;-72
2022/08/07 01:51:21;;;;;;;1.40;1.30;;;26.50;93.60;;;;;;5049118;28;20030;-72
2022/08/07 01:53:52;;;;;;;1.65;1.00;;;26.60;93.40;;;;;;5031062;28;20448;-70
2022/08/07 01:56:35;;;;;;;5.85;1.30;;;26.60;93.30;;;;;;5032700;28;20043;-71
2022/08/07 01:59:14;;;;;;;1.35;1.25;;;26.60;93.40;;;;;;5042459;28;20039;-71
2022/08/07 02:01:46;;;;;;;1.63;1.35;;;26.50;93.40;;;;;;5044875;28;20025;-72
2022/08/07 02:04:23;;;;;;;1.20;1.20;;;26.50;93.40;;;;;;5042281;28;20108;-71
2022/08/07 02:06:50;;;;;;;1.38;1.27;;;26.50;93.50;;;;;;5044729;28;20499;-71
2022/08/07 02:09:19;;;;;;;1.73;1.50;;;26.50;93.70;;;;;;5039503;28;20026;-71
2022/08/07 02:11:49;;;;;;;4.72;1.35;;;26.40;93.80;;;;;;5033102;28;20567;-71
2022/08/07 02:14:17;;;;;;;1.58;1.48;;;26.40;93.80;;;;;;5026724;28;20018;-71
2022/08/07 02:16:46;;;;;;;2.80;1.25;;;26.40;93.80;;;;;;5034481;28;20431;-70
2022/08/07 02:19:13;;;;;;;2.78;1.45;;;26.40;93.70;;;;;;5039883;28;20018;-70
2022/08/07 02:21:40;;;;;;;1.52;1.30;;;26.40;93.70;;;;;;5035443;28;20021;-71
2022/08/07 02:24:07;;;;;;;1.80;1.30;;;26.40;93.80;;;;;;5042247;28;20025;-71
2022/08/07 02:26:36;;;;;;;1.30;1.20;;;26.40;94.00;;;;;;5041814;28;20025;-71
2022/08/07 02:29:05;;;;;;;1.55;1.40;;;26.40;94.00;;;;;;5038402;28;20554;-70
2022/08/07 02:31:32;;;;;;;1.63;1.48;;;26.30;94.10;;;;;;5034003;28;20028;-71
2022/08/07 02:34:00;;;;;;;2.92;1.30;;;26.30;94.20;;;;;;5040370;28;20381;-71
2022/08/07 02:36:27;;;;;;;1.40;1.30;;;26.30;94.20;;;;;;5033110;28;20042;-71
2022/08/07 02:38:56;;;;;;;1.80;1.30;;;26.30;94.50;;;;;;5041826;28;20068;-71
2022/08/07 02:41:23;;;;;;;2.30;1.40;;;26.20;94.60;;;;;;5037017;28;20538;-71
2022/08/07 02:43:51;;;;;;;2.08;1.40;;;26.20;94.70;;;;;;5039786;28;20057;-70
2022/08/07 02:46:23;;;;;;;2.05;1.58;;;26.20;94.80;;;;;;5032144;28;20052;-71
2022/08/07 02:48:49;;;;;;;1.67;1.48;;;26.20;94.90;;;;;;5039594;28;20029;-71
2022/08/07 02:51:18;;;;;;;1.20;1.20;;;26.10;94.90;;;;;;5031865;28;20087;-71
2022/08/07 02:53:45;;;;;;;1.38;1.33;;;26.10;95.10;;;;;;5035568;28;20014;-71
2022/08/07 02:56:18;;;;;;;1.48;1.38;;;26.10;95.20;;;;;;5031840;28;20120;-71
2022/08/07 02:58:45;;;;;;;3.03;1.45;;;26.00;95.10;;;;;;5038409;28;20547;-71
2022/08/07 03:01:11;;;;;;;1.98;1.35;;;26.00;95.30;;;;;;5032189;28;20091;-71
2022/08/07 03:03:39;;;;;;;1.20;1.02;;;26.00;95.10;;;;;;5035900;28;20052;-71
2022/08/07 03:06:05;;;;;;;1.45;1.20;;;26.00;95.30;;;;;;5050236;28;20719;-71
2022/08/07 03:08:32;;;;;;;1.30;1.20;;;26.00;95.10;;;;;;5049943;28;20112;-71
2022/08/07 03:10:58;;;;;;;1.25;1.15;;;26.00;95.10;;;;;;5052038;28;20087;-71
2022/08/07 03:13:24;;;;;;;1.33;1.23;;;26.00;95.20;;;;;;5045206;28;20022;-72
2022/08/07 03:15:51;;;;;;;2.63;1.40;;;26.00;95.40;;;;;;5033931;28;20368;-71
2022/08/07 03:18:17;;;;;;;1.42;1.30;;;26.00;95.60;;;;;;5043945;28;20083;-72
2022/08/07 03:20:43;;;;;;;1.58;1.48;;;25.90;95.30;;;;;;5032868;28;20021;-71
2022/08/07 03:23:10;;;;;;;2.85;1.50;;;25.90;95.40;;;;;;5041799;28;20116;-72
2022/08/07 03:25:39;;;;;;;1.42;1.33;;;25.90;95.10;;;;;;5051758;28;20039;-72
2022/08/07 03:28:08;;;;;;;1.15;1.15;;;25.90;95.30;;;;;;5039848;28;20412;-71
2022/08/07 03:30:34;;;;;;;1.65;1.00;;;25.90;95.30;;;;;;5053771;28;20391;-72
2022/08/07 03:33:01;;;;;;;1.88;1.42;;;25.90;95.20;;;;;;5046347;28;20108;-72
2022/08/07 03:35:28;;;;;;;1.65;1.35;;;25.90;95.10;;;;;;5033713;28;20055;-71
2022/08/07 03:38:02;;;;;;;1.52;1.42;;;25.90;95.20;;;;;;5039444;28;20033;-71
2022/08/07 03:40:28;;;;;;;2.60;1.30;;;25.90;94.90;;;;;;5052381;28;20040;-71
2022/08/07 03:42:55;;;;;;;1.30;1.20;;;25.90;95.00;;;;;;5040064;28;20128;-71
2022/08/07 03:45:24;;;;;;;3.17;1.50;;;25.90;94.90;;;;;;5053593;28;20056;-71
2022/08/07 03:47:51;;;;;;;3.22;1.50;;;26.00;94.80;;;;;;5045528;28;20683;-71
2022/08/07 03:50:19;;;;;;;1.80;1.48;;;26.00;94.80;;;;;;5012489;28;20049;-71
2022/08/07 03:52:47;;;;;;;1.35;1.20;;;26.00;94.80;;;;;;5035424;28;20033;-71
2022/08/07 03:55:13;;;;;;;3.95;1.70;;;26.00;94.60;;;;;;5033405;28;20029;-71
2022/08/07 03:57:39;;;;;;;2.20;1.67;;;26.00;94.60;;;;;;5042330;28;20122;-71
2022/08/07 04:00:06;;;;;;;6.97;1.50;;;26.00;94.50;;;;;;5034817;28;20025;-71
2022/08/07 04:02:32;;;;;;;1.20;1.05;;;26.00;94.40;;;;;;5042919;28;20028;-71
2022/08/07 04:04:58;;;;;;;1.52;1.30;;;26.00;94.20;;;;;;5034664;28;20018;-71
2022/08/07 04:07:23;;;;;;;2.25;1.52;;;26.00;94.30;;;;;;5037295;28;20036;-71
2022/08/07 04:09:50;;;;;;;1.50;1.30;;;26.00;94.00;;;;;;5037146;28;20088;-71
2022/08/07 04:12:16;;;;;;;1.42;1.33;;;26.00;94.10;;;;;;5038478;28;20032;-71
2022/08/07 04:14:43;;;;;;;2.33;1.42;;;26.00;94.00;;;;;;5047130;28;20028;-71
2022/08/07 04:17:10;;;;;;;2.28;1.60;;;26.00;93.80;;;;;;5045978;28;20056;-71
2022/08/07 04:19:40;;;;;;;4.65;1.50;;;26.00;93.80;;;;;;5047221;28;20484;-71
2022/08/07 04:22:07;;;;;;;1.83;1.55;;;26.10;93.80;;;;;;5047200;28;20029;-71
2022/08/07 04:24:34;;;;;;;3.00;1.15;;;26.10;93.70;;;;;;5046876;28;20016;-71
2022/08/07 04:27:01;;;;;;;1.83;1.65;;;26.10;93.70;;;;;;5044134;28;20025;-71
2022/08/07 04:29:28;;;;;;;1.50;1.40;;;26.10;93.20;;;;;;5046037;28;20484;-70
2022/08/07 04:31:55;;;;;;;1.88;1.45;;;26.10;93.30;;;;;;5047483;28;20036;-71
2022/08/07 04:34:22;;;;;;;2.17;1.35;;;26.10;93.60;;;;;;5040448;28;20574;-71
2022/08/07 04:36:48;;;;;;;3.58;1.27;;;26.10;93.70;;;;;;5037201;28;20079;-71
2022/08/07 04:39:13;;;;;;;2.75;1.30;;;26.00;93.70;;;;;;5043612;28;20073;-71
2022/08/07 04:41:39;;;;;;;1.63;1.52;;;26.10;93.60;;;;;;5042293;28;20485;-71
2022/08/07 04:44:05;;;;;;;1.33;1.13;;;26.00;93.80;;;;;;5042472;28;20534;-72
2022/08/07 04:46:41;;;;;;;2.45;1.58;;;26.10;93.60;;;;;;5046802;28;20707;-70
2022/08/07 04:49:13;;;;;;;1.50;1.30;;;26.10;93.60;;;;;;5041242;28;20056;-70
2022/08/07 04:51:57;;;;;;;1.38;1.27;;;26.10;93.70;;;;;;5036819;28;20510;-70
2022/08/07 04:54:51;;;;;;;1.17;1.15;;;26.10;93.50;;;;;;5037422;28;20427;-71
2022/08/07 04:57:35;;;;;;;2.50;1.25;;;26.20;93.20;;;;;;5045591;28;20041;-71
2022/08/07 05:00:10;;;;;;;1.40;1.30;;;26.20;93.30;;;;;;5051954;28;20025;-71
2022/08/07 05:02:57;;;;;;;2.03;1.20;;;26.20;93.00;;;;;;5046976;28;20021;-71
2022/08/07 05:05:41;;;;;;;2.20;1.38;;;26.30;93.00;;;;;;5012292;28;20026;-71
2022/08/07 05:08:21;;;;;;;1.50;1.40;;;26.30;92.70;;;;;;5043370;28;20025;-71
2022/08/07 05:11:00;;;;;;;1.90;1.38;;;26.30;92.60;;;;;;5030412;28;20038;-71
2022/08/07 05:13:37;;;;;;;1.95;1.33;;;26.30;92.30;;;;;;5033121;28;20026;-71
2022/08/07 05:16:08;;;;;;;1.20;1.20;;;26.30;92.70;;;;;;5032789;28;20037;-71
2022/08/07 05:18:49;;;;;;;1.23;1.20;;;26.30;92.30;;;;;;5041972;28;20053;-71
2022/08/07 05:21:19;;;;;;;1.42;1.33;;;26.20;92.20;;;;;;5047152;28;20033;-71
2022/08/07 05:23:50;;;;;;;1.70;1.35;;;26.30;92.20;;;;;;5036767;28;20546;-71
2022/08/07 05:26:20;;;;;;;1.77;1.40;;;26.30;92.00;;;;;;5036064;28;20021;-71
2022/08/07 05:28:49;;;;;;;1.83;1.35;;;26.30;91.80;;;;;;5043691;28;20514;-73
2022/08/07 05:31:17;;;;;;;3.95;1.40;;;26.40;91.70;;;;;;5031408;28;20086;-70
2022/08/07 05:33:45;;;;;;;1.50;1.40;;;26.40;91.70;;;;;;5037719;28;20116;-71
2022/08/07 05:36:12;;;;;;;3.03;1.50;;;26.50;91.00;;;;;;5031141;28;20403;-71
2022/08/07 05:38:39;;;;;;;1.60;1.50;;;26.60;90.90;;;;;;5040095;28;20099;-72
2022/08/07 05:41:06;;;;;;;1.48;1.38;;;26.60;90.80;;;;;;5032489;28;20056;-71
2022/08/07 05:43:33;;;;;;;1.23;1.15;;;26.60;90.50;;;;;;5041313;28;20036;-71
2022/08/07 05:46:01;;;;;;;1.55;1.45;;;26.70;90.40;;;;;;5050360;28;20059;-71
2022/08/07 05:48:29;;;;;;;1.92;1.48;;;26.70;90.50;;;;;;5038242;28;20222;-72
2022/08/07 05:50:58;;;;;;;2.22;1.17;;;26.70;89.60;;;;;;5050117;28;20618;-72
2022/08/07 05:53:24;;;;;;;1.63;1.40;;;26.80;89.40;;;;;;5040090;28;20024;-72
2022/08/07 05:55:51;;;;;;;1.55;1.45;;;26.80;87.70;;;;;;5046918;28;20030;-72
2022/08/07 05:58:17;;;;;;;1.55;1.27;;;26.90;87.30;;;;;;5040239;28;20132;-72
2022/08/07 06:00:47;;;;;;;2.03;1.30;;;26.90;87.40;;;;;;5051277;28;20107;-72
2022/08/07 06:03:14;;;;;;;4.35;1.50;;;27.00;87.60;;;;;;5045533;28;20029;-72
2022/08/07 06:05:41;;;;;;;1.33;1.23;;;27.10;86.70;;;;;;5031179;28;20043;-72
2022/08/07 06:08:08;;;;;;;1.70;1.40;;;27.10;86.50;;;;;;5037528;28;20448;-72
2022/08/07 06:10:36;;;;;;;1.52;1.30;;;27.10;87.00;;;;;;5034610;28;20102;-72
2022/08/07 06:13:03;;;;;;;1.55;1.40;;;27.20;86.40;;;;;;5036638;28;20029;-72
2022/08/07 06:15:29;;;;;;;3.35;1.65;;;27.20;86.30;;;;;;5050967;28;20029;-72
2022/08/07 06:17:57;;;;;;;4.13;1.38;;;27.30;85.60;;;;;;5042716;28;20041;-72
2022/08/07 06:20:23;;;;;;;2.95;1.10;;;27.30;85.50;;;;;;5031101;28;20018;-72
2022/08/07 06:22:51;;;;;;;1.73;1.20;;;27.40;85.40;;;;;;5036495;28;20060;-73
2022/08/07 06:25:17;;;;;;;1.52;1.42;;;27.40;85.30;;;;;;5009936;28;20481;-73
2022/08/07 06:27:43;;;;;;;6.50;1.30;;;27.50;85.00;;;;;;5041930;28;20037;-72
2022/08/07 06:30:10;;;;;;;2.67;1.40;;;27.50;83.40;;;;;;5030632;28;20480;-72
2022/08/07 06:32:36;;;;;;;1.65;1.52;;;27.50;84.10;;;;;;5041437;28;20124;-72
2022/08/07 06:35:03;;;;;;;2.05;1.67;;;27.70;84.00;;;;;;5033207;28;20101;-72
2022/08/07 06:37:28;;;;;;;1.63;1.27;;;27.70;84.00;;;;;;5036319;28;20025;-72
2022/08/07 06:39:54;;;;;;;2.38;1.40;;;27.80;83.40;;;;;;5047562;28;20031;-72
2022/08/07 06:42:29;;;;;;;2.75;1.40;;;27.80;83.90;;;;;;5045713;28;20040;-72
2022/08/07 06:44:57;;;;;;;2.30;1.30;;;27.80;83.10;;;;;;5051651;28;20099;-72
2022/08/07 06:47:23;;;;;;;1.73;1.52;;;27.80;83.60;;;;;;5046419;28;20029;-72
2022/08/07 06:49:49;;;;;;;1.50;1.40;;;27.80;83.30;;;;;;5042877;28;20014;-71
2022/08/07 06:52:17;;;;;;;3.17;1.40;;;27.80;83.50;;;;;;5043866;28;20037;-72
2022/08/07 06:54:45;;;;;;;1.45;1.35;;;27.70;83.20;;;;;;5038099;28;20025;-72
2022/08/07 06:57:12;;;;;;;2.95;1.60;;;27.60;83.50;;;;;;5039869;28;20049;-72
2022/08/07 06:59:40;;;;;;;2.08;1.60;;;27.60;83.30;;;;;;5048932;28;20495;-73
2022/08/07 07:02:13;;;;;;;2.08;1.60;;;27.50;84.00;;;;;;5044217;28;20033;-72
2022/08/07 07:04:38;;;;;;;1.60;1.50;;;27.50;84.30;;;;;;5049173;28;20087;-72
2022/08/07 07:07:06;;;;;;;2.00;1.50;;;27.50;84.00;;;;;;5048903;28;20159;-72
2022/08/07 07:09:32;;;;;;;2.13;1.52;;;27.60;84.40;;;;;;5048021;28;20387;-73
2022/08/07 07:12:06;;;;;;;2.78;1.40;;;27.70;83.90;;;;;;5049207;28;20036;-72
2022/08/07 07:14:38;;;;;;;2.35;1.90;;;27.70;83.90;;;;;;5048012;28;20032;-72
2022/08/07 07:17:08;;;;;;;2.15;1.50;;;27.70;83.30;;;;;;5043019;28;20095;-75
2022/08/07 07:19:42;;;;;;;6.75;1.60;;;27.70;83.80;;;;;;5033487;28;20040;-72
2022/08/07 07:22:10;;;;;;;2.33;1.70;;;27.60;84.20;;;;;;5037982;28;20029;-75
2022/08/07 07:24:38;;;;;;;2.10;1.85;;;27.70;84.40;;;;;;5048462;28;20110;-73
2022/08/07 07:27:06;;;;;;;2.47;1.50;;;27.60;84.50;;;;;;5039829;28;20017;-72
2022/08/07 07:29:37;;;;;;;2.58;1.70;;;27.60;84.60;;;;;;5031218;28;20076;-72
2022/08/07 07:32:06;;;;;;;3.40;1.55;;;27.60;84.50;;;;;;5039707;28;20036;-72
2022/08/07 07:34:35;;;;;;;1.60;1.50;;;27.60;84.80;;;;;;5053888;28;20021;-75
2022/08/07 07:37:03;;;;;;;2.42;1.95;;;27.70;84.40;;;;;;5048507;28;20110;-72
2022/08/07 07:39:30;;;;;;;2.10;1.90;;;27.70;84.50;;;;;;5031074;28;20477;-73
2022/08/07 07:41:58;;;;;;;1.75;1.65;;;27.60;84.90;;;;;;5037178;28;20033;-73
2022/08/07 07:44:27;;;;;;;2.90;1.90;;;27.70;85.10;;;;;;5039699;28;20484;-74
2022/08/07 07:46:55;;;;;;;2.55;1.98;;;27.70;84.50;;;;;;5038890;28;20040;-73
2022/08/07 07:49:25;;;;;;;1.70;1.60;;;27.70;85.10;;;;;;5045827;28;20057;-72
2022/08/07 07:51:52;;;;;;;1.80;1.70;;;27.70;84.80;;;;;;5047608;28;20087;-73
2022/08/07 07:54:19;;;;;;;2.10;1.90;;;27.60;85.60;;;;;;5045413;28;20037;-73
2022/08/07 07:56:46;;;;;;;1.92;1.83;;;27.60;85.90;;;;;;5044108;28;20471;-72
2022/08/07 07:59:13;;;;;;;2.10;2.00;;;27.70;85.20;;;;;;5042239;28;20029;-72
2022/08/07 08:01:44;;;;;;;2.72;1.95;;;27.80;84.90;;;;;;5037149;28;20060;-73
2022/08/07 08:04:11;;;;;;;2.97;1.90;;;27.80;84.90;;;;;;5044084;28;20021;-74
2022/08/07 08:06:40;;;;;;;2.63;1.90;;;27.80;85.00;;;;;;5048148;28;20040;-76
2022/08/07 08:09:07;;;;;;;1.83;1.67;;;27.90;85.20;;;;;;5034198;28;20112;-73
2022/08/07 08:11:34;;;;;;;1.90;1.80;;;27.90;85.10;;;;;;5035960;28;20030;-74
2022/08/07 08:13:59;;;;;;;6.65;2.10;;;28.00;85.00;;;;;;5036316;28;20032;-75
2022/08/07 08:16:31;;;;;;;2.13;2.00;;;28.00;85.20;;;;;;5034469;28;20041;-72
2022/08/07 08:18:59;;;;;;;2.33;1.98;;;28.00;85.50;;;;;;5041028;28;20025;-73
2022/08/07 08:27:10;;;;;;;2.35;1.90;;;28.00;85.10;;;;;;5043509;28;20403;-71
2022/08/07 08:29:49;;;;;;;3.47;2.30;;;28.10;85.00;;;;;;5035101;28;20108;-69
2022/08/07 08:32:19;;;;;;;1.90;1.77;;;28.10;85.10;;;;;;5033336;28;20025;-73
2022/08/07 08:34:47;;;;;;;2.15;1.98;;;28.20;85.40;;;;;;5032912;28;20075;-72
2022/08/07 08:37:15;;;;;;;2.20;2.00;;;28.30;84.90;;;;;;5037933;28;20041;-72
2022/08/07 08:39:43;;;;;;;2.17;2.00;;;28.40;84.10;;;;;;5047412;28;20041;-76
2022/08/07 08:42:35;;;;;;;2.00;1.90;;;28.40;84.40;;;;;;5045380;28;20042;-70
2022/08/07 08:45:27;;;;;;;3.47;2.08;;;28.50;84.20;;;;;;5050348;28;20029;-71
2022/08/07 08:48:09;;;;;;;5.03;2.20;;;28.50;83.80;;;;;;5037901;28;20036;-70
2022/08/07 08:50:46;;;;;;;5.47;2.15;;;28.60;83.70;;;;;;5024615;28;20022;-72
2022/08/07 08:53:18;;;;;;;5.15;1.98;;;28.70;84.00;;;;;;5042361;28;20365;-74
2022/08/07 08:55:55;;;;;;;2.67;1.67;;;28.70;83.10;;;;;;5032182;28;20041;-71
2022/08/07 08:58:26;;;;;;;5.13;2.00;;;28.80;83.50;;;;;;5032511;28;20033;-72
2022/08/07 09:01:01;;;;;;;3.65;2.10;;;28.80;82.90;;;;;;5031497;28;20033;-70
2022/08/07 09:03:38;;;;;;;3.50;1.90;;;28.70;82.80;;;;;;5031162;28;20034;-71
2022/08/07 09:06:31;;;;;;;3.67;1.90;;;28.70;83.10;;;;;;5031163;28;20156;-71
2022/08/07 09:09:15;;;;;;;3.78;1.70;;;28.70;82.10;;;;;;5059922;28;20033;-72
2022/08/07 09:11:49;;;;;;;2.85;1.90;;;28.70;82.30;;;;;;5034213;28;20028;-72
2022/08/07 09:14:32;;;;;;;4.63;2.00;;;28.80;82.70;;;;;;5035169;28;20029;-72
2022/08/07 09:17:06;;;;;;;2.97;2.00;;;28.90;82.20;;;;;;5041486;28;20037;-73
2022/08/07 09:19:51;;;;;;;2.85;1.90;;;29.00;81.90;;;;;;5031900;28;20017;-74
2022/08/07 09:22:37;;;;;;;2.63;1.70;;;29.00;81.50;;;;;;5028114;28;20052;-71
2022/08/07 09:25:26;;;;;;;2.78;2.03;;;29.00;81.40;;;;;;5031752;28;20139;-71
2022/08/07 09:28:04;;;;;;;3.90;1.98;;;28.90;81.20;;;;;;5034088;28;20077;-72
2022/08/07 09:31:02;;;;;;;2.03;1.90;;;29.00;81.30;;;;;;5011974;28;20104;-73
2022/08/07 09:33:59;;;;;;;2.80;2.05;;;29.10;81.30;;;;;;5040175;28;20029;-73
2022/08/07 09:36:35;;;;;;;2.55;2.15;;;29.30;81.60;;;;;;5018923;28;20048;-73
2022/08/07 09:39:44;;;;;;;4.13;1.75;;;29.40;80.40;;;;;;5040126;28;20075;-72
2022/08/07 09:42:25;;;;;;;4.10;2.30;;;29.50;80.20;;;;;;5034261;28;20067;-73
2022/08/07 09:44:56;;;;;;;1.98;1.67;;;29.70;80.50;;;;;;5027937;28;20032;-72
2022/08/07 09:47:27;;;;;;;2.30;2.10;;;29.70;78.90;;;;;;5033615;28;20438;-72
2022/08/07 09:50:16;;;;;;;5.53;1.90;;;29.60;80.20;;;;;;5035780;28;20080;-72
2022/08/07 09:52:59;;;;;;;4.53;2.40;;;29.50;80.40;;;;;;5027660;28;20287;-73
2022/08/07 09:55:46;;;;;;;2.20;2.00;;;29.50;80.80;;;;;;5029866;28;20383;-73
2022/08/07 09:58:39;;;;;;;3.58;2.20;;;29.50;80.30;;;;;;5038174;28;20041;-72
2022/08/07 10:01:12;;;;;;;2.10;1.88;;;29.50;80.10;;;;;;5015034;28;20047;-72
2022/08/07 10:04:09;;;;;;;2.10;1.90;;;29.50;80.50;;;;;;5042922;28;20028;-72
2022/08/07 10:07:12;;;;;;;2.60;1.92;;;29.50;79.40;;;;;;5029511;28;20099;-72
2022/08/07 10:10:09;;;;;;;2.10;1.90;;;29.50;79.80;;;;;;5055775;28;20486;-71
2022/08/07 10:13:12;;;;;;;3.60;2.25;;;29.60;80.40;;;;;;5044813;28;20077;-71
2022/08/07 10:15:45;;;;;;;;;;;29.60;79.80;;;;;;5016516;28;20075;-73
2022/08/07 10:18:25;;;;;;;2.58;2.20;;;29.70;79.30;;;;;;5047173;28;20280;-74
2022/08/07 10:21:16;;;;;;;3.90;2.60;;;29.80;80.20;;;;;;5024745;28;20022;-72
2022/08/07 10:24:06;;;;;;;3.78;2.33;;;29.80;79.00;;;;;;5033720;28;20029;-72
2022/08/07 10:27:06;;;;;;;4.68;2.50;;;29.70;79.10;;;;;;5038302;28;20545;-72
2022/08/07 10:29:58;;;;;;;2.60;2.40;;;29.70;79.00;;;;;;5036913;28;20032;-72
2022/08/07 10:33:21;;;;;;;4.45;2.17;;;29.80;79.00;;;;;;5043780;28;20017;-71
2022/08/07 10:35:49;;;;;;;;;;;30.00;79.10;;;;;;5013447;28;20034;-72
2022/08/07 10:38:42;;;;;;;2.53;2.33;;;30.00;77.60;;;;;;5024038;28;20421;-73
2022/08/07 10:41:18;;;;;;;2.67;2.20;;;30.10;78.60;;;;;;5050641;28;20096;-71
2022/08/07 10:44:10;;;;;;;3.50;2.60;;;30.20;77.80;;;;;;5039823;28;20028;-72
2022/08/07 10:46:57;;;;;;;2.60;2.40;;;30.20;77.30;;;;;;5036976;28;20030;-73
2022/08/07 10:49:42;;;;;;;2.95;2.63;;;30.30;77.70;;;;;;5039567;28;20022;-76
2022/08/07 10:52:17;;;;;;;8.98;2.63;;;30.30;77.70;;;;;;5047348;28;20040;-72
2022/08/07 10:55:01;;;;;;;2.60;2.40;;;30.30;76.90;;;;;;5049972;28;20029;-73
2022/08/07 10:58:03;;;;;;;2.17;1.98;;;30.30;76.70;;;;;;5036585;28;20115;-74
2022/08/07 11:00:39;;;;;;;3.85;2.55;;;30.30;76.70;;;;;;5033779;28;20040;-74
2022/08/07 11:03:11;;;;;;;3.97;2.50;;;30.30;77.00;;;;;;5033604;28;20113;-74
2022/08/07 11:05:45;;;;;;;2.45;2.25;;;30.40;77.60;;;;;;5033086;28;20037;-74
2022/08/07 11:08:30;;;;;;;7.63;2.53;;;30.50;76.70;;;;;;5044410;28;20029;-74
2022/08/07 11:11:07;;;;;;;4.10;2.55;;;30.60;76.60;;;;;;5033335;28;20026;-74
2022/08/07 11:14:02;;;;;;;5.43;2.58;;;30.80;76.60;;;;;;5042742;28;20107;-73
2022/08/07 11:16:35;;;;;;;3.22;2.50;;;30.90;76.20;;;;;;5051104;28;20037;-74
2022/08/07 11:19:01;;;;;;;2.50;2.30;;;30.90;75.90;;;;;;5042793;28;20029;-74
2022/08/07 11:21:43;;;;;;;4.40;2.67;;;31.00;75.80;;;;;;5036342;28;20021;-73
2022/08/07 11:24:21;;;;;;;;;;;31.00;75.80;;;;;;5042453;28;20025;-73
2022/08/07 11:27:26;;;;;;;3.70;2.47;;;31.10;75.20;;;;;;5034640;28;21614;-75
2022/08/07 11:30:01;;;;;;;2.70;2.28;;;31.20;75.60;;;;;;5041659;28;20388;-72
2022/08/07 11:32:43;;;;;;;6.38;2.70;;;31.20;75.90;;;;;;5041412;28;20040;-74
2022/08/07 11:35:17;;;;;;;5.55;2.40;;;31.30;75.70;;;;;;5035515;28;20480;-75
2022/08/07 11:38:08;;;;;;;4.45;2.80;;;31.40;75.50;;;;;;5040667;28;20112;-74
2022/08/07 11:40:47;;;;;;;3.58;2.72;;;31.50;75.60;;;;;;5034700;28;20029;-74
2022/08/07 11:43:18;;;;;;;2.55;2.33;;;31.70;74.70;;;;;;5044946;28;20049;-73
2022/08/07 11:45:53;;;;;;;3.93;2.23;;;31.70;75.00;;;;;;5042214;28;20460;-72
2022/08/07 11:48:30;;;;;;;5.35;2.70;;;31.80;74.50;;;;;;5038386;28;20274;-73
2022/08/07 11:51:35;;;;;;;2.90;2.60;;;31.80;74.40;;;;;;5050917;28;20026;-73
2022/08/07 11:54:28;;;;;;;2.78;2.35;;;31.90;75.00;;;;;;5040574;28;20025;-73
2022/08/07 11:57:20;;;;;;;3.95;2.30;;;32.00;74.60;;;;;;5039407;28;20036;-73
2022/08/07 12:00:04;;;;;;;3.60;2.58;;;32.10;74.10;;;;;;5043177;28;20025;-73
2022/08/07 12:03:01;;;;;;;2.40;2.20;;;32.30;74.40;;;;;;5046878;28;20029;-74
2022/08/07 12:06:08;;;;;;;3.80;2.80;;;32.50;73.50;;;;;;5044256;28;20388;-75
2022/08/07 12:08:43;;;;;;;2.90;2.60;;;32.60;73.70;;;;;;5028194;28;20048;-73
2022/08/07 12:11:15;;;;;;;3.28;2.97;;;32.70;73.20;;;;;;5034342;28;20025;-72
2022/08/07 12:13:52;;;;;;;3.47;2.80;;;33.50;72.60;;;;;;5044150;28;20029;-74
2022/08/07 12:16:28;;;;;;;3.17;2.45;;;35.10;69.90;;;;;;5043965;28;20040;-72
2022/08/07 12:19:26;;;;;;;3.15;2.55;;;37.30;66.40;;;;;;5039148;28;20029;-73
2022/08/07 12:22:11;;;;;;;4.00;2.47;;;39.50;63.20;;;;;;5040321;28;20052;-74
2022/08/07 12:25:51;;;;;;;7.03;2.97;;;41.10;60.40;;;;;;5052981;28;20032;-73
2022/08/07 12:27:38;;;;;;;4.35;2.28;;;42.60;58.50;;;;;;5037667;28;20522;-74
2022/08/07 12:30:06;;;;;;;6.20;2.47;;;44.10;56.80;;;;;;5028092;28;20028;-74
2022/08/07 12:32:47;;;;;;;4.05;2.25;;;44.90;55.90;;;;;;5028098;28;20022;-75
2022/08/07 12:35:14;;;;;;;2.80;2.30;;;45.80;54.40;;;;;;5039121;28;20021;-74
2022/08/07 12:37:42;;;;;;;3.95;2.22;;;46.80;53.30;;;;;;5037191;28;20384;-74
2022/08/07 12:40:11;;;;;;;2.30;2.10;;;47.80;52.40;;;;;;5027901;28;20021;-75
2022/08/07 12:42:38;;;;;;;2.60;2.40;;;48.70;51.40;;;;;;5032395;28;20025;-75
2022/08/07 12:45:10;;;;;;;2.60;2.40;;;49.30;50.20;;;;;;5031922;28;20518;-73
2022/08/07 12:47:48;;;;;;;3.65;2.40;;;49.90;49.40;;;;;;5037485;28;20033;-73
2022/08/07 12:50:45;;;;;;;3.75;2.33;;;50.60;48.80;;;;;;5051649;28;20484;-76
2022/08/07 12:53:16;;;;;;;2.83;2.50;;;51.50;48.20;;;;;;5040114;28;20044;-75
2022/08/07 12:55:57;;;;;;;4.70;2.67;;;51.90;46.70;;;;;;5048950;28;20060;-75
2022/08/07 12:58:23;;;;;;;2.80;2.60;;;52.10;46.60;;;;;;5041249;28;20025;-76
2022/08/07 13:01:23;;;;;;;3.42;2.70;;;52.30;46.60;;;;;;5051343;28;20108;-75
2022/08/07 13:04:22;;;;;;;2.63;2.42;;;52.60;46.00;;;;;;5035672;28;20021;-76
2022/08/07 13:07:18;;;;;;;2.72;2.30;;;53.00;45.50;;;;;;5037534;28;20543;-75
2022/08/07 13:09:44;;;;;;;3.15;2.58;;;53.20;44.60;;;;;;5042636;28;20108;-78
2022/08/07 13:12:25;;;;;;;3.65;2.53;;;52.90;44.70;;;;;;5045183;28;20116;-75
2022/08/07 13:15:06;;;;;;;2.97;2.60;;;53.10;44.60;;;;;;5048360;28;20021;-75
2022/08/07 13:17:45;;;;;;;3.03;2.83;;;53.30;44.20;;;;;;5042077;28;20045;-75
2022/08/07 13:20:32;;;;;;;3.13;2.90;;;53.30;44.20;;;;;;5050829;28;20025;-75
2022/08/07 13:23:10;;;;;;;3.28;2.55;;;53.30;43.90;;;;;;5039441;28;20034;-75
2022/08/07 13:25:44;;;;;;;3.05;2.75;;;53.30;44.00;;;;;;5049254;28;20492;-77